sensor_id;sensor_type;location;lat;lon;timestamp;pressure;altitude;pressure_sealevel;temperature;humidity
818;BME280;391;51.052;6.954;2023-03-19T00:00:25;100513.00;;;13.87;68.09
818;BME280;391;51.052;6.954;2023-03-19T00:02:28;100513.09;;;13.98;67.65
818;BME280;391;51.052;6.954;2023-03-19T00:04:33;100508.00;;;14.07;67.40
818;BME280;391;51.052;6.954;2023-03-19T00:06:37;100512.34;;;14.08;67.29
818;BME280;391;51.052;6.954;2023-03-19T00:08:40;100509.69;;;14.05;67.46
818;BME280;391;51.052;6.954;2023-03-19T00:10:44;100514.09;;;14.06;67.29
818;BME280;391;51.052;6.954;2023-03-19T00:12:49;100517.63;;;14.11;67.24
818;BME280;391;51.052;6.954;2023-03-19T00:14:52;100518.56;;;14.16;67.19
818;BME280;391;51.052;6.954;2023-03-19T00:16:56;100487.84;;;14.04;67.38
818;BME280;391;51.052;6.954;2023-03-19T00:18:59;100511.53;;;14.12;67.07
818;BME280;391;51.052;6.954;2023-03-19T00:21:03;100515.06;;;14.17;67.28
818;BME280;391;51.052;6.954;2023-03-19T00:23:07;100522.09;;;14.19;67.26
818;BME280;391;51.052;6.954;2023-03-19T00:25:10;100517.72;;;14.20;67.27
818;BME280;391;51.052;6.954;2023-03-19T00:27:14;100501.94;;;14.17;67.39
818;BME280;391;51.052;6.954;2023-03-19T00:29:20;100508.06;;;14.13;67.56
818;BME280;391;51.052;6.954;2023-03-19T00:31:25;100497.44;;;14.02;67.55
818;BME280;391;51.052;6.954;2023-03-19T00:33:29;100506.22;;;14.07;67.80
818;BME280;391;51.052;6.954;2023-03-19T00:35:32;100508.88;;;14.10;67.88
818;BME280;391;51.052;6.954;2023-03-19T00:37:36;100499.22;;;14.05;68.00
818;BME280;391;51.052;6.954;2023-03-19T00:39:42;100511.50;;;14.09;68.07
818;BME280;391;51.052;6.954;2023-03-19T00:41:46;100509.69;;;14.05;68.26
818;BME280;391;51.052;6.954;2023-03-19T00:43:52;100508.78;;;14.01;68.43
818;BME280;391;51.052;6.954;2023-03-19T00:45:57;100512.25;;;13.97;68.23
818;BME280;391;51.052;6.954;2023-03-19T00:48:01;100516.38;;;13.77;68.49
818;BME280;391;51.052;6.954;2023-03-19T00:50:05;100519.72;;;13.65;68.75
818;BME280;391;51.052;6.954;2023-03-19T00:52:09;100494.28;;;13.55;68.70
818;BME280;391;51.052;6.954;2023-03-19T00:54:14;100521.47;;;13.66;68.86
818;BME280;391;51.052;6.954;2023-03-19T00:56:18;100516.09;;;13.57;69.00
818;BME280;391;51.052;6.954;2023-03-19T00:58:22;100511.75;;;13.58;68.99
818;BME280;391;51.052;6.954;2023-03-19T01:00:25;100517.00;;;13.59;69.05
818;BME280;391;51.052;6.954;2023-03-19T01:02:31;100514.34;;;13.56;68.89
818;BME280;391;51.052;6.954;2023-03-19T01:04:34;100503.66;;;13.41;68.83
818;BME280;391;51.052;6.954;2023-03-19T01:06:38;100510.53;;;13.32;68.89
818;BME280;391;51.052;6.954;2023-03-19T01:08:41;100513.06;;;13.24;69.30
818;BME280;391;51.052;6.954;2023-03-19T01:10:45;100495.53;;;13.20;69.23
818;BME280;391;51.052;6.954;2023-03-19T01:12:49;100509.72;;;13.37;69.26
818;BME280;391;51.052;6.954;2023-03-19T01:14:53;100520.34;;;13.48;69.10
818;BME280;391;51.052;6.954;2023-03-19T01:16:57;100497.63;;;13.45;69.03
818;BME280;391;51.052;6.954;2023-03-19T01:19:02;100512.66;;;13.58;68.67
818;BME280;391;51.052;6.954;2023-03-19T01:21:07;100504.78;;;13.58;68.50
818;BME280;391;51.052;6.954;2023-03-19T01:23:18;100496.78;;;13.48;68.18
818;BME280;391;51.052;6.954;2023-03-19T01:25:22;100518.63;;;13.48;68.18
818;BME280;391;51.052;6.954;2023-03-19T01:27:39;100508.03;;;13.41;68.60
818;BME280;391;51.052;6.954;2023-03-19T01:29:43;100398.94;;;12.80;68.67
818;BME280;391;51.052;6.954;2023-03-19T01:31:58;100499.19;;;13.34;68.70
818;BME280;391;51.052;6.954;2023-03-19T01:34:15;100500.94;;;13.32;68.58
818;BME280;391;51.052;6.954;2023-03-19T01:36:29;100508.78;;;13.32;68.66
818;BME280;391;51.052;6.954;2023-03-19T01:38:37;100504.44;;;13.33;68.75
818;BME280;391;51.052;6.954;2023-03-19T01:40:47;100497.31;;;13.22;68.56
818;BME280;391;51.052;6.954;2023-03-19T01:42:52;100491.13;;;13.17;68.68
818;BME280;391;51.052;6.954;2023-03-19T01:45:36;100501.56;;;13.16;68.52
818;BME280;391;51.052;6.954;2023-03-19T01:48:01;100501.53;;;13.13;68.79
818;BME280;391;51.052;6.954;2023-03-19T01:50:28;100495.44;;;13.14;68.79
818;BME280;391;51.052;6.954;2023-03-19T01:52:57;100492.84;;;13.15;68.77
818;BME280;391;51.052;6.954;2023-03-19T01:55:09;100478.78;;;13.09;68.82
818;BME280;391;51.052;6.954;2023-03-19T01:57:32;100498.16;;;13.21;68.79
818;BME280;391;51.052;6.954;2023-03-19T01:59:46;100498.22;;;13.27;68.80
818;BME280;391;51.052;6.954;2023-03-19T02:02:17;100495.66;;;13.31;68.55
818;BME280;391;51.052;6.954;2023-03-19T02:04:25;100493.03;;;13.31;68.60
818;BME280;391;51.052;6.954;2023-03-19T02:06:31;100483.38;;;13.25;68.50
818;BME280;391;51.052;6.954;2023-03-19T02:08:36;100491.31;;;13.31;68.60
818;BME280;391;51.052;6.954;2023-03-19T02:10:44;100491.34;;;13.33;68.72
818;BME280;391;51.052;6.954;2023-03-19T02:12:49;100485.13;;;13.27;68.63
818;BME280;391;51.052;6.954;2023-03-19T02:14:53;100498.34;;;13.35;68.73
818;BME280;391;51.052;6.954;2023-03-19T02:16:56;100494.84;;;13.33;68.83
818;BME280;391;51.052;6.954;2023-03-19T02:19:00;100499.19;;;13.34;68.92
818;BME280;391;51.052;6.954;2023-03-19T02:21:06;100494.81;;;13.32;68.93
818;BME280;391;51.052;6.954;2023-03-19T02:23:20;100497.25;;;13.19;69.24
818;BME280;391;51.052;6.954;2023-03-19T02:25:36;100502.38;;;13.10;69.68
818;BME280;391;51.052;6.954;2023-03-19T02:27:43;100497.03;;;13.06;69.86
818;BME280;391;51.052;6.954;2023-03-19T02:29:47;100504.81;;;13.01;70.01
818;BME280;391;51.052;6.954;2023-03-19T02:31:51;100487.31;;;12.97;70.31
818;BME280;391;51.052;6.954;2023-03-19T02:33:56;100490.75;;;12.96;70.54
818;BME280;391;51.052;6.954;2023-03-19T02:36:01;100491.53;;;12.89;70.70
818;BME280;391;51.052;6.954;2023-03-19T02:38:05;100484.50;;;12.87;70.97
818;BME280;391;51.052;6.954;2023-03-19T02:40:11;100488.09;;;12.92;70.67
818;BME280;391;51.052;6.954;2023-03-19T02:42:18;100489.75;;;12.85;71.13
818;BME280;391;51.052;6.954;2023-03-19T02:44:25;100494.13;;;12.88;71.31
818;BME280;391;51.052;6.954;2023-03-19T02:46:28;100487.09;;;12.84;71.37
818;BME280;391;51.052;6.954;2023-03-19T02:48:32;100490.56;;;12.83;71.73
818;BME280;391;51.052;6.954;2023-03-19T02:50:36;100493.09;;;12.78;71.80
818;BME280;391;51.052;6.954;2023-03-19T02:52:40;100493.81;;;12.68;72.24
818;BME280;391;51.052;6.954;2023-03-19T02:54:43;100491.13;;;12.63;72.37
818;BME280;391;51.052;6.954;2023-03-19T02:56:47;100494.56;;;12.61;72.66
818;BME280;391;51.052;6.954;2023-03-19T02:58:53;100498.94;;;12.62;72.77
818;BME280;391;51.052;6.954;2023-03-19T03:00:58;100494.56;;;12.61;73.01
818;BME280;391;51.052;6.954;2023-03-19T03:03:02;100497.19;;;12.61;72.90
818;BME280;391;51.052;6.954;2023-03-19T03:05:08;100457.59;;;12.40;72.96
818;BME280;391;51.052;6.954;2023-03-19T03:07:11;100496.28;;;12.59;73.10
818;BME280;391;51.052;6.954;2023-03-19T03:09:15;100498.91;;;12.60;73.49
818;BME280;391;51.052;6.954;2023-03-19T03:11:19;100495.28;;;12.52;73.53
818;BME280;391;51.052;6.954;2023-03-19T03:13:23;100482.03;;;12.42;73.84
818;BME280;391;51.052;6.954;2023-03-19T03:15:26;100483.81;;;12.43;74.09
818;BME280;391;51.052;6.954;2023-03-19T03:17:32;100488.34;;;12.53;74.17
818;BME280;391;51.052;6.954;2023-03-19T03:19:35;100494.69;;;12.68;74.01
818;BME280;391;51.052;6.954;2023-03-19T03:21:39;100490.50;;;12.78;73.28
818;BME280;391;51.052;6.954;2023-03-19T03:23:42;100496.56;;;12.77;73.50
818;BME280;391;51.052;6.954;2023-03-19T03:25:47;100394.38;;;12.12;73.28
818;BME280;391;51.052;6.954;2023-03-19T03:27:51;100499.22;;;12.79;73.55
818;BME280;391;51.052;6.954;2023-03-19T03:29:54;100494.97;;;12.87;73.24
818;BME280;391;51.052;6.954;2023-03-19T03:31:58;100495.06;;;12.93;73.12
818;BME280;391;51.052;6.954;2023-03-19T03:34:03;100505.66;;;13.00;72.95
818;BME280;391;51.052;6.954;2023-03-19T03:36:07;100506.47;;;12.96;72.79
818;BME280;391;51.052;6.954;2023-03-19T03:38:10;100506.31;;;12.86;72.85
818;BME280;391;51.052;6.954;2023-03-19T03:40:14;100517.63;;;12.85;73.06
818;BME280;391;51.052;6.954;2023-03-19T03:42:18;100507.91;;;12.76;72.92
818;BME280;391;51.052;6.954;2023-03-19T03:44:22;100517.44;;;12.74;73.19
818;BME280;391;51.052;6.954;2023-03-19T03:46:25;100519.97;;;12.68;73.41
818;BME280;391;51.052;6.954;2023-03-19T03:48:29;100508.47;;;12.58;73.44
818;BME280;391;51.052;6.954;2023-03-19T03:50:34;100511.03;;;12.54;73.62
818;BME280;391;51.052;6.954;2023-03-19T03:52:41;100522.28;;;12.50;73.98
818;BME280;391;51.052;6.954;2023-03-19T03:54:45;100518.78;;;12.49;73.96
818;BME280;391;51.052;6.954;2023-03-19T03:56:49;100524.03;;;12.51;73.81
818;BME280;391;51.052;6.954;2023-03-19T03:58:52;100524.03;;;12.51;73.92
818;BME280;391;51.052;6.954;2023-03-19T04:00:56;100519.63;;;12.48;73.96
818;BME280;391;51.052;6.954;2023-03-19T04:03:00;100520.34;;;12.40;74.14
818;BME280;391;51.052;6.954;2023-03-19T04:05:05;100530.81;;;12.41;74.19
818;BME280;391;51.052;6.954;2023-03-19T04:07:10;100514.28;;;12.42;74.22
818;BME280;391;51.052;6.954;2023-03-19T04:09:18;100512.81;;;12.56;73.94
818;BME280;391;51.052;6.954;2023-03-19T04:11:22;100519.91;;;12.63;73.59
818;BME280;391;51.052;6.954;2023-03-19T04:13:26;100481.13;;;12.41;73.59
818;BME280;391;51.052;6.954;2023-03-19T04:15:35;100524.38;;;12.70;73.36
818;BME280;391;51.052;6.954;2023-03-19T04:17:44;100527.81;;;12.66;73.14
818;BME280;391;51.052;6.954;2023-03-19T04:19:53;100523.53;;;12.71;73.13
818;BME280;391;51.052;6.954;2023-03-19T04:22:02;100525.19;;;12.68;73.08
818;BME280;391;51.052;6.954;2023-03-19T04:24:08;100521.69;;;12.67;72.95
818;BME280;391;51.052;6.954;2023-03-19T04:26:13;100531.41;;;12.74;72.73
818;BME280;391;51.052;6.954;2023-03-19T04:28:16;100521.94;;;12.81;72.66
818;BME280;391;51.052;6.954;2023-03-19T04:30:20;100527.25;;;12.87;72.43
818;BME280;391;51.052;6.954;2023-03-19T04:32:25;100533.53;;;12.97;72.22
818;BME280;391;51.052;6.954;2023-03-19T04:34:29;100539.59;;;12.96;71.90
818;BME280;391;51.052;6.954;2023-03-19T04:36:33;100541.28;;;12.91;71.74
818;BME280;391;51.052;6.954;2023-03-19T04:38:38;100534.19;;;12.84;71.98
818;BME280;391;51.052;6.954;2023-03-19T04:40:46;100539.38;;;12.81;72.05
818;BME280;391;51.052;6.954;2023-03-19T04:42:50;100534.91;;;12.75;71.91
818;BME280;391;51.052;6.954;2023-03-19T04:45:11;100548.00;;;12.75;72.00
818;BME280;391;51.052;6.954;2023-03-19T04:47:17;100542.69;;;12.70;72.06
818;BME280;391;51.052;6.954;2023-03-19T04:49:30;100544.50;;;12.74;71.86
818;BME280;391;51.052;6.954;2023-03-19T04:51:35;100558.09;;;12.55;72.01
818;BME280;391;51.052;6.954;2023-03-19T04:53:38;100547.69;;;12.58;72.10
818;BME280;391;51.052;6.954;2023-03-19T04:55:42;100537.25;;;12.58;72.13
818;BME280;391;51.052;6.954;2023-03-19T04:57:53;100551.28;;;12.63;72.08
818;BME280;391;51.052;6.954;2023-03-19T05:00:01;100562.66;;;12.67;72.10
818;BME280;391;51.052;6.954;2023-03-19T05:02:07;100566.22;;;12.69;72.01
818;BME280;391;51.052;6.954;2023-03-19T05:04:12;100557.53;;;12.71;71.99
818;BME280;391;51.052;6.954;2023-03-19T05:06:16;100563.75;;;12.80;71.95
818;BME280;391;51.052;6.954;2023-03-19T05:08:21;100562.16;;;12.88;71.74
818;BME280;391;51.052;6.954;2023-03-19T05:10:24;100557.91;;;12.94;71.50
818;BME280;391;51.052;6.954;2023-03-19T05:12:28;100566.72;;;12.99;71.43
818;BME280;391;51.052;6.954;2023-03-19T05:14:34;100552.72;;;12.97;71.41
818;BME280;391;51.052;6.954;2023-03-19T05:16:46;100561.44;;;12.96;71.55
818;BME280;391;51.052;6.954;2023-03-19T05:18:50;100556.19;;;12.95;71.43
818;BME280;391;51.052;6.954;2023-03-19T05:20:54;100537.72;;;12.87;71.34
818;BME280;391;51.052;6.954;2023-03-19T05:23:00;100561.47;;;12.99;71.36
818;BME280;391;51.052;6.954;2023-03-19T05:25:17;100566.84;;;13.07;71.26
818;BME280;391;51.052;6.954;2023-03-19T05:27:21;100565.25;;;13.15;70.91
818;BME280;391;51.052;6.954;2023-03-19T05:29:38;100576.78;;;13.26;70.95
818;BME280;391;51.052;6.954;2023-03-19T05:31:59;100582.94;;;13.30;70.58
818;BME280;391;51.052;6.954;2023-03-19T05:34:05;100566.25;;;13.24;70.39
818;BME280;391;51.052;6.954;2023-03-19T05:36:09;100568.78;;;13.18;70.55
818;BME280;391;51.052;6.954;2023-03-19T05:38:25;100582.63;;;13.10;70.62
818;BME280;391;51.052;6.954;2023-03-19T05:40:35;100576.41;;;13.05;70.80
818;BME280;391;51.052;6.954;2023-03-19T05:42:56;100571.06;;;12.99;70.84
818;BME280;391;51.052;6.954;2023-03-19T05:45:04;100578.94;;;13.00;70.80
818;BME280;391;51.052;6.954;2023-03-19T05:47:17;100576.19;;;12.91;71.16
818;BME280;391;51.052;6.954;2023-03-19T05:49:26;100575.28;;;12.91;71.28
818;BME280;391;51.052;6.954;2023-03-19T05:51:29;100586.50;;;12.84;71.46
818;BME280;391;51.052;6.954;2023-03-19T05:53:33;100574.16;;;12.77;71.72
818;BME280;391;51.052;6.954;2023-03-19T05:55:59;100589.91;;;12.80;71.70
818;BME280;391;51.052;6.954;2023-03-19T05:58:08;100586.31;;;12.71;71.83
818;BME280;391;51.052;6.954;2023-03-19T06:00:15;100589.75;;;12.70;71.96
818;BME280;391;51.052;6.954;2023-03-19T06:02:21;100598.53;;;12.72;71.81
818;BME280;391;51.052;6.954;2023-03-19T06:04:33;100595.72;;;12.62;72.09
818;BME280;391;51.052;6.954;2023-03-19T06:06:37;100598.38;;;12.65;72.10
818;BME280;391;51.052;6.954;2023-03-19T06:08:41;100605.34;;;12.64;72.16
818;BME280;391;51.052;6.954;2023-03-19T06:11:17;100604.41;;;12.61;72.30
818;BME280;391;51.052;6.954;2023-03-19T06:13:28;100572.75;;;12.44;72.22
818;BME280;391;51.052;6.954;2023-03-19T06:15:35;100612.41;;;12.68;72.33
818;BME280;391;51.052;6.954;2023-03-19T06:17:54;100614.13;;;12.66;72.17
818;BME280;391;51.052;6.954;2023-03-19T06:19:57;100609.69;;;12.64;72.41
818;BME280;391;51.052;6.954;2023-03-19T06:22:01;100617.47;;;12.59;72.42
818;BME280;391;51.052;6.954;2023-03-19T06:24:05;100623.59;;;12.60;72.52
818;BME280;391;51.052;6.954;2023-03-19T06:26:10;100625.31;;;12.59;72.54
818;BME280;391;51.052;6.954;2023-03-19T06:28:21;100620.09;;;12.61;72.62
818;BME280;391;51.052;6.954;2023-03-19T06:30:25;100613.25;;;12.67;72.31
818;BME280;391;51.052;6.954;2023-03-19T06:32:33;100621.97;;;12.68;72.48
818;BME280;391;51.052;6.954;2023-03-19T06:34:42;100621.91;;;12.63;72.56
818;BME280;391;51.052;6.954;2023-03-19T06:36:45;100517.03;;;12.03;72.53
818;BME280;391;51.052;6.954;2023-03-19T06:38:51;100623.81;;;12.72;72.54
818;BME280;391;51.052;6.954;2023-03-19T06:40:54;100618.56;;;12.72;72.25
818;BME280;391;51.052;6.954;2023-03-19T06:42:58;100623.03;;;12.78;72.31
818;BME280;391;51.052;6.954;2023-03-19T06:45:01;100629.25;;;12.84;72.36
818;BME280;391;51.052;6.954;2023-03-19T06:47:05;100629.34;;;12.89;72.32
818;BME280;391;51.052;6.954;2023-03-19T06:49:13;100548.22;;;12.38;72.07
818;BME280;391;51.052;6.954;2023-03-19T06:51:16;100627.53;;;12.86;71.90
818;BME280;391;51.052;6.954;2023-03-19T06:53:20;100601.91;;;12.67;71.83
818;BME280;391;51.052;6.954;2023-03-19T06:55:23;100633.69;;;12.88;72.00
818;BME280;391;51.052;6.954;2023-03-19T06:57:27;100640.66;;;12.88;71.79
818;BME280;391;51.052;6.954;2023-03-19T06:59:31;100642.34;;;12.83;71.82
818;BME280;391;51.052;6.954;2023-03-19T07:01:34;100629.88;;;12.69;72.01
818;BME280;391;51.052;6.954;2023-03-19T07:03:38;100640.44;;;12.76;72.30
818;BME280;391;51.052;6.954;2023-03-19T07:05:43;100652.69;;;12.78;72.34
818;BME280;391;51.052;6.954;2023-03-19T07:07:47;100637.84;;;12.77;72.12
818;BME280;391;51.052;6.954;2023-03-19T07:09:50;100643.13;;;12.79;72.03
818;BME280;391;51.052;6.954;2023-03-19T07:11:54;100647.41;;;12.77;72.19
818;BME280;391;51.052;6.954;2023-03-19T07:13:58;100649.25;;;12.81;72.42
818;BME280;391;51.052;6.954;2023-03-19T07:16:01;100656.25;;;12.82;72.40
818;BME280;391;51.052;6.954;2023-03-19T07:18:05;100652.66;;;12.75;72.37
818;BME280;391;51.052;6.954;2023-03-19T07:20:10;100657.03;;;12.78;72.54
818;BME280;391;51.052;6.954;2023-03-19T07:22:15;100650.81;;;12.71;72.58
818;BME280;391;51.052;6.954;2023-03-19T07:24:19;100664.66;;;12.65;72.74
818;BME280;391;51.052;6.954;2023-03-19T07:26:22;100669.91;;;12.65;72.97
818;BME280;391;51.052;6.954;2023-03-19T07:28:26;100667.25;;;12.64;72.98
818;BME280;391;51.052;6.954;2023-03-19T07:30:29;100666.44;;;12.66;73.02
818;BME280;391;51.052;6.954;2023-03-19T07:32:33;100666.44;;;12.68;73.16
818;BME280;391;51.052;6.954;2023-03-19T07:34:37;100669.00;;;12.65;73.07
818;BME280;391;51.052;6.954;2023-03-19T07:36:40;100677.75;;;12.67;72.96
818;BME280;391;51.052;6.954;2023-03-19T07:38:45;100681.25;;;12.66;73.55
818;BME280;391;51.052;6.954;2023-03-19T07:40:49;100680.31;;;12.64;73.64
818;BME280;391;51.052;6.954;2023-03-19T07:43:03;100673.34;;;12.63;73.70
818;BME280;391;51.052;6.954;2023-03-19T07:45:08;100678.81;;;12.75;73.65
818;BME280;391;51.052;6.954;2023-03-19T07:47:13;100682.38;;;12.79;73.59
818;BME280;391;51.052;6.954;2023-03-19T07:49:30;100674.72;;;12.91;74.32
818;BME280;391;51.052;6.954;2023-03-19T07:51:33;100671.59;;;13.08;74.73
818;BME280;391;51.052;6.954;2023-03-19T07:53:38;100682.28;;;13.20;73.62
818;BME280;391;51.052;6.954;2023-03-19T07:55:43;100677.00;;;13.19;73.37
818;BME280;391;51.052;6.954;2023-03-19T07:57:46;100679.69;;;13.22;73.27
818;BME280;391;51.052;6.954;2023-03-19T07:59:50;100675.19;;;13.13;72.77
818;BME280;391;51.052;6.954;2023-03-19T08:01:53;100679.38;;;13.07;73.20
818;BME280;391;51.052;6.954;2023-03-19T08:03:57;100680.38;;;13.10;73.17
818;BME280;391;51.052;6.954;2023-03-19T08:06:00;100671.53;;;13.07;72.94
818;BME280;391;51.052;6.954;2023-03-19T08:08:07;100681.25;;;13.12;73.08
818;BME280;391;51.052;6.954;2023-03-19T08:10:11;100684.88;;;13.19;72.99
818;BME280;391;51.052;6.954;2023-03-19T08:12:15;100684.06;;;13.23;72.85
818;BME280;391;51.052;6.954;2023-03-19T08:14:19;100682.50;;;13.34;72.71
818;BME280;391;51.052;6.954;2023-03-19T08:16:23;100689.38;;;13.27;72.73
818;BME280;391;51.052;6.954;2023-03-19T08:18:27;100684.81;;;13.16;73.07
818;BME280;391;51.052;6.954;2023-03-19T08:20:31;100680.63;;;13.24;73.09
818;BME280;391;51.052;6.954;2023-03-19T08:22:35;100684.97;;;13.25;72.99
818;BME280;391;51.052;6.954;2023-03-19T08:24:39;100689.28;;;13.21;72.96
818;BME280;391;51.052;6.954;2023-03-19T08:26:43;100696.38;;;13.29;72.55
818;BME280;391;51.052;6.954;2023-03-19T08:28:48;100691.44;;;13.45;72.81
818;BME280;391;51.052;6.954;2023-03-19T08:30:51;100687.19;;;13.53;72.61
818;BME280;391;51.052;6.954;2023-03-19T08:32:57;100696.81;;;13.54;72.53
818;BME280;391;51.052;6.954;2023-03-19T08:35:00;100699.13;;;13.36;72.58
818;BME280;391;51.052;6.954;2023-03-19T08:37:04;100690.84;;;13.12;73.77
818;BME280;391;51.052;6.954;2023-03-19T08:39:07;100698.06;;;13.23;73.75
818;BME280;391;51.052;6.954;2023-03-19T08:41:11;100704.28;;;13.30;73.73
818;BME280;391;51.052;6.954;2023-03-19T08:43:14;100712.13;;;13.30;73.45
818;BME280;391;51.052;6.954;2023-03-19T08:45:20;100725.19;;;13.29;73.74
818;BME280;391;51.052;6.954;2023-03-19T08:47:25;100710.25;;;13.23;73.65
818;BME280;391;51.052;6.954;2023-03-19T08:49:28;100706.69;;;13.19;74.12
818;BME280;391;51.052;6.954;2023-03-19T08:51:32;100700.81;;;13.33;73.73
818;BME280;391;51.052;6.954;2023-03-19T08:53:36;100707.00;;;13.38;73.13
818;BME280;391;51.052;6.954;2023-03-19T08:55:40;100704.38;;;13.36;73.33
818;BME280;391;51.052;6.954;2023-03-19T08:57:45;100709.75;;;13.45;73.07
818;BME280;391;51.052;6.954;2023-03-19T08:59:48;100704.97;;;13.21;73.50
818;BME280;391;51.052;6.954;2023-03-19T09:01:53;100711.72;;;13.09;74.74
818;BME280;391;51.052;6.954;2023-03-19T09:03:57;100702.34;;;13.20;74.77
818;BME280;391;51.052;6.954;2023-03-19T09:06:02;100720.59;;;13.15;74.66
818;BME280;391;51.052;6.954;2023-03-19T09:08:06;100602.56;;;12.54;74.45
818;BME280;391;51.052;6.954;2023-03-19T09:10:10;100709.41;;;13.25;74.21
818;BME280;391;51.052;6.954;2023-03-19T09:12:15;100713.13;;;13.38;73.71
818;BME280;391;51.052;6.954;2023-03-19T09:14:19;100712.16;;;13.32;73.79
818;BME280;391;51.052;6.954;2023-03-19T09:16:24;100713.81;;;13.27;74.01
818;BME280;391;51.052;6.954;2023-03-19T09:18:29;100708.88;;;13.43;73.49
818;BME280;391;51.052;6.954;2023-03-19T09:20:32;100702.88;;;13.52;72.94
818;BME280;391;51.052;6.954;2023-03-19T09:22:36;100688.78;;;13.44;73.48
818;BME280;391;51.052;6.954;2023-03-19T09:24:40;100712.06;;;13.78;73.04
818;BME280;391;51.052;6.954;2023-03-19T09:26:43;100717.47;;;13.90;72.53
818;BME280;391;51.052;6.954;2023-03-19T09:28:47;100717.66;;;14.02;72.03
818;BME280;391;51.052;6.954;2023-03-19T09:30:50;100721.47;;;13.65;72.80
818;BME280;391;51.052;6.954;2023-03-19T09:32:54;100720.81;;;13.82;72.74
818;BME280;391;51.052;6.954;2023-03-19T09:34:59;100722.72;;;13.90;72.13
818;BME280;391;51.052;6.954;2023-03-19T09:37:03;100722.72;;;13.92;71.86
818;BME280;391;51.052;6.954;2023-03-19T09:39:06;100734.09;;;13.92;71.80
818;BME280;391;51.052;6.954;2023-03-19T09:41:15;100731.28;;;13.80;71.97
818;BME280;391;51.052;6.954;2023-03-19T09:46:09;100738.44;;;13.90;71.79
818;BME280;391;51.052;6.954;2023-03-19T09:48:18;100739.38;;;13.94;72.14
818;BME280;391;51.052;6.954;2023-03-19T09:50:32;100739.38;;;13.94;71.72
818;BME280;391;51.052;6.954;2023-03-19T09:52:41;100744.72;;;14.00;71.77
818;BME280;391;51.052;6.954;2023-03-19T09:54:48;100736.81;;;13.98;71.78
818;BME280;391;51.052;6.954;2023-03-19T09:56:53;100714.72;;;13.83;72.06
818;BME280;391;51.052;6.954;2023-03-19T09:58:57;100741.06;;;13.90;72.15
818;BME280;391;51.052;6.954;2023-03-19T10:01:02;100742.66;;;13.81;72.48
818;BME280;391;51.052;6.954;2023-03-19T10:03:17;100734.34;;;14.10;72.04
818;BME280;391;51.052;6.954;2023-03-19T10:05:35;100747.47;;;14.09;71.83
818;BME280;391;51.052;6.954;2023-03-19T10:07:56;100749.41;;;14.23;71.94
818;BME280;391;51.052;6.954;2023-03-19T10:10:20;100745.09;;;14.27;71.47
818;BME280;391;51.052;6.954;2023-03-19T10:12:41;100745.72;;;14.11;71.63
818;BME280;391;51.052;6.954;2023-03-19T10:15:03;100749.16;;;14.04;71.93
818;BME280;391;51.052;6.954;2023-03-19T10:17:16;100751.06;;;14.15;71.61
818;BME280;391;51.052;6.954;2023-03-19T10:19:22;100689.44;;;13.85;71.09
818;BME280;391;51.052;6.954;2023-03-19T10:21:31;100746.91;;;14.31;70.58
818;BME280;391;51.052;6.954;2023-03-19T10:23:41;100743.53;;;14.40;69.80
818;BME280;391;51.052;6.954;2023-03-19T10:25:47;100751.25;;;14.29;70.56
818;BME280;391;51.052;6.954;2023-03-19T10:27:57;100755.50;;;14.21;70.77
818;BME280;391;51.052;6.954;2023-03-19T10:30:11;100746.66;;;14.13;70.62
818;BME280;391;51.052;6.954;2023-03-19T10:32:17;100747.53;;;14.15;71.06
818;BME280;391;51.052;6.954;2023-03-19T10:34:31;100747.94;;;14.41;70.78
818;BME280;391;51.052;6.954;2023-03-19T10:36:37;100758.47;;;14.44;70.85
818;BME280;391;51.052;6.954;2023-03-19T10:38:42;100760.22;;;14.43;70.13
818;BME280;391;51.052;6.954;2023-03-19T10:40:55;100755.00;;;14.45;70.56
818;BME280;391;51.052;6.954;2023-03-19T10:43:05;100750.59;;;14.44;70.76
818;BME280;391;51.052;6.954;2023-03-19T10:45:20;100756.47;;;14.26;71.20
818;BME280;391;51.052;6.954;2023-03-19T10:47:26;100742.47;;;14.27;71.60
818;BME280;391;51.052;6.954;2023-03-19T10:49:34;100757.56;;;14.40;71.40
818;BME280;391;51.052;6.954;2023-03-19T10:51:42;100759.56;;;14.58;71.10
818;BME280;391;51.052;6.954;2023-03-19T10:53:47;100747.00;;;14.37;71.12
818;BME280;391;51.052;6.954;2023-03-19T10:55:53;100754.16;;;14.49;70.53
818;BME280;391;51.052;6.954;2023-03-19T10:58:02;100757.78;;;14.58;70.72
818;BME280;391;51.052;6.954;2023-03-19T11:00:15;100766.66;;;14.68;70.05
818;BME280;391;51.052;6.954;2023-03-19T11:02:21;100752.50;;;14.55;69.84
818;BME280;391;51.052;6.954;2023-03-19T11:04:29;100765.69;;;14.60;70.37
818;BME280;391;51.052;6.954;2023-03-19T11:06:35;100765.47;;;14.43;71.59
818;BME280;391;51.052;6.954;2023-03-19T11:08:40;100763.19;;;14.69;71.67
818;BME280;391;51.052;6.954;2023-03-19T11:10:46;100765.13;;;14.83;71.38
818;BME280;391;51.052;6.954;2023-03-19T11:12:52;100765.16;;;14.87;71.11
818;BME280;391;51.052;6.954;2023-03-19T11:14:57;100758.06;;;14.81;70.72
818;BME280;391;51.052;6.954;2023-03-19T11:17:04;100577.47;;;13.74;70.41
818;BME280;391;51.052;6.954;2023-03-19T11:19:17;100767.63;;;14.74;70.75
818;BME280;391;51.052;6.954;2023-03-19T11:21:25;100757.97;;;14.72;70.84
818;BME280;391;51.052;6.954;2023-03-19T11:23:36;100766.78;;;14.78;70.66
818;BME280;391;51.052;6.954;2023-03-19T11:25:46;100687.47;;;14.31;70.54
818;BME280;391;51.052;6.954;2023-03-19T11:27:57;100763.38;;;14.86;70.35
818;BME280;391;51.052;6.954;2023-03-19T11:30:06;100760.06;;;15.03;70.06
818;BME280;391;51.052;6.954;2023-03-19T11:34:47;100764.91;;;15.47;68.26
818;BME280;391;51.052;6.954;2023-03-19T11:37:00;100668.09;;;14.93;67.88
818;BME280;391;51.052;6.954;2023-03-19T11:39:18;100767.78;;;15.66;67.60
818;BME280;391;51.052;6.954;2023-03-19T11:41:35;100770.28;;;15.57;67.09
818;BME280;391;51.052;6.954;2023-03-19T11:43:47;100768.44;;;15.47;66.87